Time;durP1;ratioP1;P1;durP2;ratioP2;P2;SDS_P1;SDS_P2;PMS_P1;PMS_P2;Temp;Humidity;BMP_temperature;BMP_pressure;BME280_temperature;BME280_humidity;BME280_pressure;Samples;Min_cycle;Max_cycle;Signal;HPM_P1;HPM_P2
2022/06/30 00:01:27;;;;;;;3.70;3.30;;;27.00;85.20;;;;;;5058391;28;20442;-95
2022/06/30 00:03:53;;;;;;;4.23;3.83;;;27.00;85.20;;;;;;5054519;28;20954;-96
2022/06/30 00:06:19;;;;;;;3.80;3.30;;;27.00;85.80;;;;;;5061234;28;20442;-96
2022/06/30 00:08:46;;;;;;;3.40;3.10;;;27.00;85.10;;;;;;5054458;28;20458;-96
2022/06/30 00:11:11;;;;;;;3.33;3.00;;;26.90;85.00;;;;;;5057805;28;20213;-96
2022/06/30 00:13:41;;;;;;;10.00;3.00;;;26.90;85.00;;;;;;5063612;28;20462;-94
2022/06/30 00:16:09;;;;;;;5.07;3.53;;;26.90;85.10;;;;;;5058316;28;20232;-95
2022/06/30 00:18:35;;;;;;;3.37;3.03;;;26.80;85.10;;;;;;5064267;28;20977;-93
2022/06/30 00:21:01;;;;;;;3.40;3.10;;;26.80;85.20;;;;;;5063236;28;20843;-95
2022/06/30 00:23:27;;;;;;;4.10;3.40;;;26.80;85.30;;;;;;5054638;28;20438;-96
2022/06/30 00:25:53;;;;;;;3.93;3.43;;;26.80;85.50;;;;;;5053118;28;20411;-95
2022/06/30 00:28:19;;;;;;;3.43;3.13;;;26.80;85.90;;;;;;5053667;28;20435;-94
2022/06/30 00:30:49;;;;;;;3.37;3.07;;;26.80;86.80;;;;;;5053771;28;20177;-95
2022/06/30 00:33:15;;;;;;;3.93;3.63;;;26.80;88.00;;;;;;5053755;28;20446;-95
2022/06/30 00:35:42;;;;;;;8.53;2.90;;;26.90;88.30;;;;;;5057580;28;20945;-96
2022/06/30 00:38:09;;;;;;;4.03;3.43;;;26.90;89.00;;;;;;5054238;28;20955;-93
2022/06/30 00:40:40;;;;;;;3.57;3.27;;;26.90;89.90;;;;;;5053962;28;20510;-94
2022/06/30 00:43:06;;;;;;;3.10;2.53;;;26.90;89.10;;;;;;5054109;28;20422;-93
2022/06/30 00:45:32;;;;;;;4.23;3.60;;;27.00;88.60;;;;;;5066605;28;20410;-94
2022/06/30 00:47:59;;;;;;;3.77;3.47;;;27.00;86.90;;;;;;5064328;28;20433;-93
2022/06/30 00:50:26;;;;;;;6.20;4.30;;;26.90;86.60;;;;;;5054146;28;20422;-96
2022/06/30 00:52:52;;;;;;;3.30;2.93;;;26.90;86.60;;;;;;5053570;28;20474;-96
2022/06/30 00:55:19;;;;;;;4.60;3.70;;;26.80;86.40;;;;;;5054459;28;20442;-95
2022/06/30 00:57:45;;;;;;;3.63;3.23;;;26.80;86.80;;;;;;5056333;28;20492;-96
2022/06/30 01:00:14;;;;;;;5.40;3.40;;;26.70;87.10;;;;;;5053640;28;20971;-96
2022/06/30 01:02:41;;;;;;;4.57;3.83;;;26.70;87.30;;;;;;5054695;28;20463;-94
2022/06/30 01:05:07;;;;;;;5.33;3.80;;;26.60;87.80;;;;;;5062214;28;20466;-96
2022/06/30 01:07:34;;;;;;;6.70;3.60;;;26.60;87.10;;;;;;5054080;28;20462;-95
2022/06/30 01:12:47;;;;;;;4.27;3.30;;;26.50;87.30;;;;;;5054459;28;20588;-93
2022/06/30 01:15:15;;;;;;;5.13;4.00;;;26.40;87.40;;;;;;5053520;28;20458;-95
2022/06/30 01:17:42;;;;;;;10.10;4.17;;;26.40;87.60;;;;;;5058880;28;20463;-94
2022/06/30 01:20:09;;;;;;;9.40;3.67;;;26.40;87.90;;;;;;5053668;28;20453;-96
2022/06/30 01:22:35;;;;;;;3.47;3.17;;;26.30;88.10;;;;;;5053595;28;20458;-94
2022/06/30 01:25:02;;;;;;;3.87;3.50;;;26.30;88.70;;;;;;5053643;28;20434;-95
2022/06/30 01:27:28;;;;;;;3.67;3.33;;;26.30;90.10;;;;;;5053578;28;20803;-96
2022/06/30 01:29:54;;;;;;;3.87;3.50;;;26.30;90.20;;;;;;5056896;28;20505;-96
2022/06/30 01:32:20;;;;;;;4.60;3.43;;;26.30;90.20;;;;;;5069201;28;20469;-95
2022/06/30 01:34:46;;;;;;;3.80;3.50;;;26.30;90.30;;;;;;5069214;28;20194;-94
2022/06/30 01:37:12;;;;;;;3.53;3.23;;;26.30;90.50;;;;;;5061713;28;20434;-95
2022/06/30 01:39:37;;;;;;;4.10;3.60;;;26.40;90.70;;;;;;5057039;28;20434;-96
2022/06/30 01:42:03;;;;;;;3.83;3.47;;;26.40;90.80;;;;;;5057161;28;20272;-96
2022/06/30 01:44:29;;;;;;;4.30;3.53;;;26.30;88.90;;;;;;5060646;28;20273;-95
2022/06/30 01:46:55;;;;;;;4.40;3.67;;;26.30;88.50;;;;;;5058783;28;20957;-94
2022/06/30 01:49:21;;;;;;;5.10;3.90;;;26.30;88.50;;;;;;5056914;28;20205;-94
2022/06/30 01:51:46;;;;;;;7.07;4.27;;;26.20;88.60;;;;;;5058101;28;20470;-96
2022/06/30 01:54:12;;;;;;;5.33;3.20;;;26.20;88.80;;;;;;5066201;28;20277;-95
2022/06/30 01:56:41;;;;;;;4.13;3.40;;;26.10;88.90;;;;;;5057243;28;20200;-95
2022/06/30 01:59:07;;;;;;;4.83;3.60;;;26.10;89.70;;;;;;5058697;28;20216;-94
2022/06/30 02:01:33;;;;;;;4.10;3.40;;;26.00;90.60;;;;;;5058280;28;20504;-95
2022/06/30 02:04:46;;;;;;;4.97;3.33;;;26.00;90.60;;;;;;5057100;28;20473;-94
2022/06/30 02:06:45;;;;;;;5.30;3.77;;;26.00;90.90;;;;;;5063208;28;20426;-95
2022/06/30 02:09:11;;;;;;;4.97;4.10;;;26.00;91.10;;;;;;5059820;28;20529;-93
2022/06/30 02:11:37;;;;;;;4.23;3.80;;;26.00;91.00;;;;;;5056300;28;20209;-95
2022/06/30 02:14:03;;;;;;;4.10;3.70;;;26.00;91.00;;;;;;5060862;28;20194;-96
2022/06/30 02:16:30;;;;;;;4.60;3.83;;;26.00;91.50;;;;;;5072880;28;20433;-94
2022/06/30 02:18:56;;;;;;;6.77;3.90;;;25.90;92.00;;;;;;5061125;28;20190;-96
2022/06/30 02:21:22;;;;;;;4.43;4.03;;;25.90;91.80;;;;;;5056389;28;20426;-96
2022/06/30 02:23:48;;;;;;;4.37;3.90;;;25.90;90.20;;;;;;5056411;28;20889;-93
2022/06/30 02:26:14;;;;;;;7.80;4.00;;;25.80;89.70;;;;;;5058169;28;20418;-95
2022/06/30 02:28:39;;;;;;;4.20;3.80;;;25.80;89.80;;;;;;5056758;28;20259;-95
2022/06/30 02:31:05;;;;;;;5.07;3.80;;;25.80;90.70;;;;;;5056377;28;20575;-96
2022/06/30 02:33:31;;;;;;;4.20;3.80;;;25.70;90.10;;;;;;5056202;28;20248;-95
2022/06/30 02:35:57;;;;;;;6.47;4.17;;;25.60;91.00;;;;;;5056315;28;20181;-94
2022/06/30 02:38:22;;;;;;;4.40;3.57;;;25.60;91.50;;;;;;5057506;28;20560;-94
2022/06/30 02:40:48;;;;;;;4.80;3.80;;;25.60;92.00;;;;;;5058180;28;20177;-96
2022/06/30 02:43:14;;;;;;;5.63;3.63;;;25.60;92.20;;;;;;5057384;28;20327;-93
2022/06/30 02:45:40;;;;;;;4.20;3.67;;;25.50;92.20;;;;;;5061147;28;20334;-96
2022/06/30 02:48:05;;;;;;;3.67;3.30;;;25.50;92.00;;;;;;5055738;28;20184;-95
2022/06/30 02:50:31;;;;;;;4.40;3.60;;;25.50;92.30;;;;;;5069785;28;20180;-94
2022/06/30 02:52:57;;;;;;;5.77;3.87;;;25.50;92.20;;;;;;5065075;28;20552;-94
2022/06/30 02:55:23;;;;;;;4.53;4.10;;;25.40;92.10;;;;;;5056179;28;20432;-95
2022/06/30 02:57:49;;;;;;;5.63;4.20;;;25.40;92.20;;;;;;5055787;28;20215;-94
2022/06/30 03:00:15;;;;;;;5.07;3.63;;;25.40;92.30;;;;;;5055600;28;20427;-94
2022/06/30 03:02:41;;;;;;;4.33;3.60;;;25.30;91.70;;;;;;5055469;28;20229;-95
2022/06/30 03:05:08;;;;;;;6.47;4.30;;;25.30;91.80;;;;;;5060193;28;20442;-96
2022/06/30 03:07:34;;;;;;;3.93;3.53;;;25.20;92.30;;;;;;5070869;28;20434;-95
2022/06/30 03:10:00;;;;;;;4.03;3.63;;;25.10;92.80;;;;;;5067590;28;20449;-96
2022/06/30 03:12:28;;;;;;;7.37;4.67;;;25.10;93.20;;;;;;5059284;28;20228;-95
2022/06/30 03:14:54;;;;;;;4.07;3.60;;;25.00;93.40;;;;;;5061173;28;20438;-94
2022/06/30 03:17:20;;;;;;;4.10;3.80;;;25.00;93.50;;;;;;5071428;28;20500;-94
2022/06/30 03:19:46;;;;;;;9.80;3.87;;;24.90;93.40;;;;;;5062714;28;20680;-95
2022/06/30 03:22:12;;;;;;;4.63;3.53;;;24.90;93.70;;;;;;5059250;28;20200;-96
2022/06/30 03:24:37;;;;;;;6.57;3.57;;;24.90;93.80;;;;;;5055212;28;20965;-94
2022/06/30 03:27:04;;;;;;;4.47;3.77;;;24.80;93.70;;;;;;5055167;28;20233;-94
2022/06/30 03:29:30;;;;;;;6.07;4.80;;;24.80;93.50;;;;;;5055141;28;20290;-96
2022/06/30 03:31:56;;;;;;;6.17;4.13;;;24.80;93.40;;;;;;5055803;28;20567;-95
2022/06/30 03:34:22;;;;;;;5.00;3.93;;;24.70;92.90;;;;;;5058271;28;20208;-95
2022/06/30 03:36:48;;;;;;;5.10;3.77;;;24.70;93.30;;;;;;5054911;28;20191;-94
2022/06/30 03:39:13;;;;;;;5.10;4.20;;;24.70;93.00;;;;;;5055022;28;20968;-94
2022/06/30 03:41:39;;;;;;;4.30;3.90;;;24.70;93.30;;;;;;5055046;28;20238;-95
2022/06/30 03:44:05;;;;;;;4.27;3.87;;;24.70;93.00;;;;;;5054988;28;20197;-95
2022/06/30 03:46:32;;;;;;;4.37;3.80;;;24.70;92.80;;;;;;5059229;28;20330;-95
2022/06/30 03:48:57;;;;;;;4.97;4.47;;;24.80;93.10;;;;;;5054938;28;20232;-94
2022/06/30 03:51:23;;;;;;;4.57;4.17;;;24.80;93.40;;;;;;5054735;28;20562;-94
2022/06/30 03:53:49;;;;;;;4.43;3.97;;;24.80;93.10;;;;;;5063286;28;20779;-95
2022/06/30 03:56:15;;;;;;;3.60;3.30;;;24.80;93.00;;;;;;5054693;28;20557;-94
2022/06/30 03:58:41;;;;;;;5.10;4.30;;;24.90;93.30;;;;;;5054555;28;20453;-94
2022/06/30 04:01:06;;;;;;;7.03;3.93;;;24.80;93.30;;;;;;5057057;28;20184;-93
2022/06/30 04:03:32;;;;;;;4.43;4.03;;;24.90;93.40;;;;;;5058765;28;20240;-95
2022/06/30 04:05:58;;;;;;;4.60;3.87;;;24.90;94.00;;;;;;5063440;28;20275;-95
2022/06/30 04:08:24;;;;;;;4.10;3.47;;;24.90;93.60;;;;;;5058572;28;20212;-94
2022/06/30 04:10:50;;;;;;;4.20;3.80;;;24.90;93.80;;;;;;5054369;28;20193;-94
2022/06/30 04:13:15;;;;;;;5.13;3.60;;;25.00;93.80;;;;;;5054397;28;20211;-94
2022/06/30 04:15:41;;;;;;;5.30;4.20;;;25.00;93.80;;;;;;5055973;28;20418;-93
2022/06/30 04:18:07;;;;;;;8.40;4.17;;;25.00;93.80;;;;;;5055560;28;20671;-95
2022/06/30 04:20:33;;;;;;;5.00;3.50;;;25.00;93.60;;;;;;5057503;28;20244;-93
2022/06/30 04:22:58;;;;;;;6.30;4.13;;;25.10;93.70;;;;;;5054373;28;20283;-94
2022/06/30 04:25:24;;;;;;;4.40;3.87;;;25.10;93.70;;;;;;5054020;28;20180;-94
2022/06/30 04:27:52;;;;;;;5.10;3.77;;;25.10;93.80;;;;;;5057166;28;20186;-95
2022/06/30 04:33:04;;;;;;;12.60;4.43;;;25.10;93.90;;;;;;5076566;28;20436;-93
2022/06/30 04:35:30;;;;;;;5.50;3.70;;;25.20;94.20;;;;;;5074193;28;20462;-95
2022/06/30 04:38:03;;;;;;;4.40;4.00;;;25.20;94.20;;;;;;5074179;28;20441;-96
2022/06/30 04:43:13;;;;;;;5.00;4.50;;;25.20;93.90;;;;;;5077078;28;20431;-94
2022/06/30 04:45:39;;;;;;;4.37;3.97;;;25.20;94.00;;;;;;5075381;28;20449;-93
2022/06/30 04:48:06;;;;;;;5.67;4.17;;;25.30;94.00;;;;;;5073742;28;20440;-95
2022/06/30 04:50:32;;;;;;;4.13;3.83;;;25.30;94.40;;;;;;5073105;28;20456;-93
2022/06/30 04:52:57;;;;;;;5.60;4.17;;;25.40;94.30;;;;;;5073115;28;20543;-95
2022/06/30 04:55:23;;;;;;;7.53;4.40;;;25.40;94.20;;;;;;5073849;28;20208;-95
2022/06/30 04:57:49;;;;;;;4.93;3.93;;;25.50;94.20;;;;;;5078022;28;20206;-94
2022/06/30 05:00:16;;;;;;;3.97;3.57;;;25.60;94.30;;;;;;5077517;28;21032;-94
2022/06/30 05:02:42;;;;;;;4.13;3.73;;;25.60;94.20;;;;;;5088608;28;20382;-96
2022/06/30 05:05:09;;;;;;;4.30;3.63;;;25.70;94.30;;;;;;5077946;28;20441;-94
2022/06/30 05:07:35;;;;;;;4.20;3.90;;;25.80;94.50;;;;;;5073257;28;20487;-94
2022/06/30 05:10:02;;;;;;;4.53;3.70;;;25.80;94.40;;;;;;5081180;28;20951;-92
2022/06/30 05:12:27;;;;;;;4.60;3.97;;;25.90;94.00;;;;;;5086102;28;20513;-93
2022/06/30 05:14:53;;;;;;;4.70;4.27;;;26.00;93.90;;;;;;5079670;28;20453;-96
2022/06/30 05:17:19;;;;;;;5.80;3.93;;;26.00;93.80;;;;;;5076997;28;20442;-94
2022/06/30 05:19:45;;;;;;;4.43;3.80;;;26.00;93.70;;;;;;5069967;28;20204;-96
2022/06/30 05:22:11;;;;;;;4.53;4.13;;;26.10;93.90;;;;;;5057503;28;20264;-95
2022/06/30 05:27:21;;;;;;;3.70;3.40;;;26.20;93.50;;;;;;5078658;28;20199;-95
2022/06/30 05:29:47;;;;;;;4.07;3.67;;;26.30;93.30;;;;;;5079064;28;20429;-95
2022/06/30 05:32:13;;;;;;;4.70;4.30;;;26.40;93.00;;;;;;5077405;28;20527;-95
2022/06/30 05:34:39;;;;;;;3.97;3.67;;;26.50;92.90;;;;;;5077199;28;20223;-95
2022/06/30 05:37:05;;;;;;;3.80;3.10;;;26.60;92.80;;;;;;5080711;28;20430;-92
2022/06/30 05:39:32;;;;;;;4.80;4.37;;;26.60;92.70;;;;;;5080841;28;20417;-95
2022/06/30 05:42:02;;;;;;;4.80;4.27;;;26.70;92.60;;;;;;5080973;28;20250;-96
2022/06/30 05:44:29;;;;;;;7.17;4.13;;;26.70;92.40;;;;;;5077396;28;20448;-96
2022/06/30 05:46:55;;;;;;;6.20;4.47;;;26.80;92.40;;;;;;5077220;28;20985;-95
2022/06/30 05:49:22;;;;;;;5.20;4.47;;;26.90;92.50;;;;;;5077055;28;20528;-94
2022/06/30 05:51:48;;;;;;;4.07;3.77;;;27.00;92.30;;;;;;5076815;28;20981;-96
2022/06/30 05:54:14;;;;;;;4.70;4.30;;;27.10;92.00;;;;;;5077340;28;20441;-95
2022/06/30 05:56:40;;;;;;;4.93;4.53;;;27.10;91.70;;;;;;5078561;28;20425;-94
2022/06/30 05:59:06;;;;;;;4.77;4.27;;;27.20;91.60;;;;;;5080369;28;20483;-95
2022/06/30 06:01:32;;;;;;;5.20;4.10;;;27.30;91.70;;;;;;5076927;28;20422;-96
2022/06/30 06:03:58;;;;;;;4.20;3.80;;;27.40;91.90;;;;;;5075898;28;20495;-96
2022/06/30 06:06:24;;;;;;;7.07;4.40;;;27.50;91.70;;;;;;5079359;28;20203;-94
2022/06/30 06:08:49;;;;;;;5.30;3.87;;;27.60;91.30;;;;;;5078457;28;20296;-94
2022/06/30 06:11:15;;;;;;;8.50;4.30;;;27.60;90.70;;;;;;5075911;28;20493;-93
2022/06/30 06:13:41;;;;;;;5.20;4.70;;;27.80;90.80;;;;;;5074431;28;20300;-95
2022/06/30 06:16:07;;;;;;;4.50;4.10;;;27.80;90.70;;;;;;5077751;28;20196;-94
2022/06/30 06:18:33;;;;;;;4.60;4.20;;;27.90;90.90;;;;;;5074832;28;20197;-94
2022/06/30 06:20:58;;;;;;;4.63;4.13;;;28.00;90.50;;;;;;5083708;28;20176;-95
2022/06/30 06:23:24;;;;;;;5.00;4.60;;;28.00;90.30;;;;;;5061882;28;20477;-95
2022/06/30 06:25:51;;;;;;;4.90;4.40;;;28.10;90.70;;;;;;5068636;28;20184;-94
2022/06/30 06:31:04;;;;;;;6.33;4.50;;;28.20;90.50;;;;;;5056671;28;20402;-95
2022/06/30 06:33:29;;;;;;;3.90;3.60;;;28.30;90.70;;;;;;5059410;28;20443;-96
2022/06/30 06:35:56;;;;;;;4.77;3.77;;;28.40;90.90;;;;;;5057544;28;20412;-94
2022/06/30 06:38:22;;;;;;;4.73;4.30;;;28.50;90.60;;;;;;5055291;28;20215;-95
2022/06/30 06:40:48;;;;;;;7.20;4.17;;;28.60;90.70;;;;;;5061922;28;20420;-94
2022/06/30 06:43:14;;;;;;;4.67;3.97;;;28.60;90.20;;;;;;5082958;28;20190;-95
2022/06/30 06:45:39;;;;;;;4.63;4.10;;;28.80;90.20;;;;;;5075589;28;20183;-94
2022/06/30 06:48:06;;;;;;;5.00;4.43;;;28.80;89.90;;;;;;5065787;28;20192;-95
2022/06/30 06:50:31;;;;;;;10.37;4.83;;;28.90;89.30;;;;;;5066124;28;20275;-95
2022/06/30 06:52:57;;;;;;;5.47;4.93;;;29.00;88.60;;;;;;5072813;28;20478;-94
2022/06/30 06:55:23;;;;;;;4.90;4.10;;;29.00;86.80;;;;;;5065458;28;20580;-94
2022/06/30 06:57:48;;;;;;;7.40;4.50;;;29.00;86.60;;;;;;5056367;28;20181;-94
2022/06/30 07:00:16;;;;;;;5.27;4.13;;;29.10;86.20;;;;;;5071631;28;20640;-93
2022/06/30 07:02:42;;;;;;;4.70;3.90;;;29.20;85.50;;;;;;5070385;28;20251;-95
2022/06/30 07:05:09;;;;;;;5.20;4.70;;;29.30;85.80;;;;;;5064731;28;20452;-95
2022/06/30 07:07:36;;;;;;;7.63;4.40;;;29.30;86.00;;;;;;5062786;28;20449;-93
2022/06/30 07:10:02;;;;;;;4.60;4.20;;;29.30;84.80;;;;;;5060547;28;20439;-95
2022/06/30 07:12:28;;;;;;;6.97;4.70;;;29.40;84.20;;;;;;5074267;28;20490;-95
2022/06/30 07:14:54;;;;;;;4.60;4.20;;;29.50;84.60;;;;;;5061431;28;20440;-96
2022/06/30 07:17:20;;;;;;;4.77;4.03;;;29.50;83.80;;;;;;5075270;28;20494;-96
2022/06/30 07:19:46;;;;;;;4.27;3.87;;;29.60;84.50;;;;;;5056518;28;20352;-96
2022/06/30 07:22:11;;;;;;;4.70;4.30;;;29.70;83.20;;;;;;5066359;28;20195;-93
2022/06/30 07:24:37;;;;;;;4.93;4.00;;;29.70;83.50;;;;;;5050080;28;20449;-95
2022/06/30 07:27:03;;;;;;;4.63;4.23;;;29.80;83.90;;;;;;5052363;28;20196;-94
2022/06/30 07:29:30;;;;;;;3.90;3.50;;;29.90;83.20;;;;;;5057470;28;20202;-94
2022/06/30 07:31:57;;;;;;;5.50;3.33;;;29.90;80.70;;;;;;5082031;28;20198;-96
2022/06/30 07:34:23;;;;;;;2.90;2.70;;;30.00;79.70;;;;;;5075088;28;20445;-94
2022/06/30 07:36:50;;;;;;;5.17;3.70;;;30.00;79.00;;;;;;5066445;28;20495;-94
2022/06/30 07:39:16;;;;;;;4.43;3.57;;;30.10;79.00;;;;;;5055146;28;20472;-93
2022/06/30 07:41:42;;;;;;;3.53;3.23;;;30.10;78.90;;;;;;5067715;28;20835;-93
2022/06/30 07:44:08;;;;;;;4.77;3.40;;;30.10;78.40;;;;;;5068189;28;20676;-95
2022/06/30 07:46:34;;;;;;;3.90;3.60;;;30.20;78.30;;;;;;5070941;28;20427;-94
2022/06/30 07:49:00;;;;;;;4.20;3.80;;;30.20;79.80;;;;;;5064507;28;20438;-95
2022/06/30 07:51:26;;;;;;;3.90;3.40;;;30.30;80.30;;;;;;5067158;28;20562;-92
2022/06/30 07:53:52;;;;;;;4.07;3.60;;;30.30;79.80;;;;;;5061843;28;20444;-94
2022/06/30 07:56:18;;;;;;;3.70;3.40;;;30.40;80.30;;;;;;5056136;28;20203;-95
2022/06/30 07:58:44;;;;;;;4.67;4.27;;;30.40;79.80;;;;;;5059722;28;20498;-96
2022/06/30 08:01:10;;;;;;;4.97;3.60;;;30.50;81.10;;;;;;5063530;28;20219;-94
2022/06/30 08:03:45;;;;;;;3.50;3.20;;;30.50;80.40;;;;;;5052371;28;20831;-95
2022/06/30 08:06:12;;;;;;;4.13;3.80;;;30.50;80.00;;;;;;5065063;28;20425;-94
2022/06/30 08:08:38;;;;;;;3.93;3.60;;;30.50;81.10;;;;;;5061734;28;20957;-95
2022/06/30 08:11:04;;;;;;;6.20;3.50;;;30.60;80.60;;;;;;5065763;28;20521;-95
2022/06/30 08:13:30;;;;;;;4.13;3.77;;;30.60;80.70;;;;;;5060727;28;20832;-94
2022/06/30 08:15:56;;;;;;;5.13;4.30;;;30.60;82.40;;;;;;5068818;28;20419;-95
2022/06/30 08:18:22;;;;;;;3.80;3.50;;;30.70;81.60;;;;;;5061321;28;20472;-94
2022/06/30 08:20:48;;;;;;;5.97;4.03;;;30.70;82.00;;;;;;5063803;28;20180;-96
2022/06/30 08:23:14;;;;;;;5.80;3.77;;;30.80;82.50;;;;;;5059539;28;20177;-94
2022/06/30 08:25:40;;;;;;;4.20;3.80;;;30.80;81.30;;;;;;5065479;28;20441;-93
2022/06/30 08:28:08;;;;;;;4.10;3.77;;;30.90;81.60;;;;;;5074908;28;20474;-94
2022/06/30 08:30:34;;;;;;;5.07;3.33;;;30.90;82.70;;;;;;5058886;28;20242;-92
2022/06/30 08:33:00;;;;;;;5.03;4.03;;;30.90;81.60;;;;;;5052538;28;20526;-95
2022/06/30 08:35:26;;;;;;;3.73;3.43;;;31.00;82.10;;;;;;5058953;28;20582;-96
2022/06/30 08:37:54;;;;;;;6.53;3.53;;;31.00;82.40;;;;;;5055851;28;20862;-92
2022/06/30 08:43:09;;;;;;;4.37;3.97;;;31.10;82.00;;;;;;5058842;28;20860;-95
2022/06/30 08:45:35;;;;;;;4.53;4.10;;;31.20;82.10;;;;;;5057050;28;20489;-95
2022/06/30 08:48:05;;;;;;;4.40;3.97;;;31.30;81.40;;;;;;5052936;28;20541;-96
2022/06/30 08:50:33;;;;;;;5.40;3.90;;;31.30;81.80;;;;;;5059384;28;20511;-95
2022/06/30 08:53:02;;;;;;;4.60;4.20;;;31.30;81.60;;;;;;5058176;28;20567;-93
2022/06/30 08:55:31;;;;;;;4.17;3.77;;;31.40;82.60;;;;;;5065132;28;20189;-95
2022/06/30 08:58:17;;;;;;;5.37;4.17;;;31.40;81.70;;;;;;5073768;28;20422;-95
2022/06/30 09:00:46;;;;;;;5.27;4.87;;;31.50;81.90;;;;;;5068993;28;20431;-95
2022/06/30 09:03:17;;;;;;;3.73;3.40;;;31.50;82.80;;;;;;5054099;28;20485;-96
2022/06/30 09:05:46;;;;;;;4.47;4.07;;;31.60;83.50;;;;;;5063402;28;20434;-96
2022/06/30 09:08:13;;;;;;;6.43;4.27;;;31.70;81.80;;;;;;5063134;28;20487;-94
2022/06/30 09:10:52;;;;;;;4.10;3.80;;;31.80;83.10;;;;;;5057093;28;20454;-94
2022/06/30 09:13:19;;;;;;;4.10;3.80;;;31.90;81.90;;;;;;5053979;28;20492;-95
2022/06/30 09:15:45;;;;;;;4.97;4.03;;;32.00;81.90;;;;;;5058938;28;20885;-96
2022/06/30 09:18:38;;;;;;;5.20;4.00;;;32.00;82.20;;;;;;5056144;28;20439;-93
2022/06/30 09:21:18;;;;;;;4.90;3.83;;;32.10;81.50;;;;;;5033897;28;20442;-95
2022/06/30 09:23:46;;;;;;;5.30;4.27;;;32.10;81.60;;;;;;5063118;28;20462;-95
2022/06/30 09:26:29;;;;;;;7.83;3.77;;;32.20;81.30;;;;;;5064732;28;20885;-94
2022/06/30 09:28:55;;;;;;;5.63;4.30;;;32.20;81.60;;;;;;5056189;28;20571;-95
2022/06/30 09:31:44;;;;;;;4.10;3.80;;;32.30;81.10;;;;;;5054356;28;20550;-95
2022/06/30 09:34:19;;;;;;;5.63;4.27;;;32.30;82.00;;;;;;5063161;28;20476;-96
2022/06/30 09:36:49;;;;;;;4.07;3.70;;;32.40;81.50;;;;;;5063701;28;20442;-94
2022/06/30 09:39:18;;;;;;;4.10;3.80;;;32.40;82.60;;;;;;5056438;28;20818;-95
2022/06/30 09:41:46;;;;;;;3.97;3.53;;;32.50;81.20;;;;;;5063302;28;20478;-96
2022/06/30 09:44:23;;;;;;;4.83;4.40;;;32.50;81.40;;;;;;5058140;28;20478;-95
2022/06/30 09:47:00;;;;;;;4.60;4.20;;;32.60;81.10;;;;;;5067998;28;20441;-94
2022/06/30 09:49:36;;;;;;;5.40;4.50;;;32.70;83.60;;;;;;5068910;28;20986;-96
2022/06/30 09:52:14;;;;;;;7.50;3.90;;;32.80;81.10;;;;;;5061057;28;20462;-96
2022/06/30 09:54:55;;;;;;;4.70;4.30;;;32.90;80.80;;;;;;5073536;28;20548;-94
2022/06/30 09:57:22;;;;;;;4.47;3.70;;;32.90;80.50;;;;;;5074198;28;20413;-96
2022/06/30 10:00:04;;;;;;;4.90;3.83;;;33.00;81.20;;;;;;5071406;28;20466;-95
2022/06/30 10:02:36;;;;;;;4.70;4.30;;;33.10;82.20;;;;;;5056984;28;20920;-96
2022/06/30 10:05:04;;;;;;;4.00;3.40;;;33.20;81.60;;;;;;5047051;28;20553;-96
2022/06/30 10:07:34;;;;;;;4.67;4.17;;;33.30;82.10;;;;;;5045239;28;20401;-95
2022/06/30 10:10:24;;;;;;;4.23;3.43;;;33.40;81.10;;;;;;5045655;28;20450;-95
2022/06/30 10:12:51;;;;;;;6.80;3.70;;;33.40;79.70;;;;;;5045468;28;20467;-95
2022/06/30 10:15:18;;;;;;;3.93;3.63;;;33.50;79.10;;;;;;5046439;28;20450;-96
2022/06/30 10:17:51;;;;;;;4.07;3.67;;;33.50;79.90;;;;;;5042609;28;20415;-94
2022/06/30 10:20:20;;;;;;;4.53;4.13;;;33.50;80.60;;;;;;5055391;28;20453;-96
2022/06/30 10:22:47;;;;;;;3.70;3.40;;;33.50;79.50;;;;;;5051665;28;20419;-96
2022/06/30 10:25:16;;;;;;;4.03;3.53;;;33.50;79.50;;;;;;5055891;28;20516;-96
2022/06/30 10:28:18;;;;;;;4.53;4.13;;;33.60;79.40;;;;;;5051631;28;20433;-96
2022/06/30 10:31:34;;;;;;;;;;;;;;;;;;;;;
2022/06/30 10:34:32;;;;;;;3.80;3.43;;;33.70;79.30;;;;;;5046992;28;20572;-94
2022/06/30 10:37:19;;;;;;;4.20;3.90;;;33.60;79.20;;;;;;5063924;28;20435;-95
2022/06/30 10:39:54;;;;;;;4.70;4.10;;;33.60;79.50;;;;;;5052896;28;20552;-96
2022/06/30 10:42:45;;;;;;;4.40;3.80;;;33.60;80.20;;;;;;5058126;28;20441;-96
2022/06/30 10:45:29;;;;;;;5.90;3.67;;;33.70;80.90;;;;;;5048866;28;20451;-96
2022/06/30 10:48:04;;;;;;;5.80;3.95;;;33.80;80.50;;;;;;5045668;28;20414;-96
2022/06/30 10:50:45;;;;;;;4.13;3.70;;;33.90;80.90;;;;;;5037008;28;20288;-96
2022/06/30 10:53:18;;;;;;;4.07;3.67;;;33.90;80.20;;;;;;5042164;28;21025;-96
2022/06/30 10:55:47;;;;;;;3.93;3.63;;;34.00;79.70;;;;;;5035225;28;20447;-94
2022/06/30 10:58:14;;;;;;;4.10;3.70;;;34.00;80.90;;;;;;5050703;28;20434;-95
2022/06/30 11:00:47;;;;;;;4.50;4.13;;;34.10;80.10;;;;;;5046132;28;20410;-95
2022/06/30 11:03:34;;;;;;;4.13;3.73;;;34.10;80.00;;;;;;5046891;28;20462;-96
2022/06/30 11:06:10;;;;;;;5.00;4.60;;;34.10;79.50;;;;;;5056789;28;20437;-94
2022/06/30 11:08:37;;;;;;;4.47;4.00;;;34.20;79.80;;;;;;5055029;28;21024;-95
2022/06/30 11:11:21;;;;;;;4.53;3.80;;;34.20;80.40;;;;;;5060703;28;20904;-96
2022/06/30 11:14:07;;;;;;;4.27;3.90;;;34.20;80.10;;;;;;5064498;28;21018;-96
2022/06/30 11:16:35;;;;;;;5.87;4.90;;;34.30;80.80;;;;;;5061586;28;20425;-95
2022/06/30 11:19:12;;;;;;;4.67;4.20;;;34.30;80.70;;;;;;5079582;28;20446;-96
2022/06/30 11:21:45;;;;;;;4.93;4.33;;;34.40;80.90;;;;;;5074554;28;20486;-96
2022/06/30 11:24:15;;;;;;;4.50;4.10;;;34.40;80.90;;;;;;5072442;28;20501;-96
2022/06/30 11:29:42;;;;;;;5.23;4.37;;;34.50;80.30;;;;;;5061958;28;20470;-96
2022/06/30 11:32:08;;;;;;;5.83;4.40;;;34.50;81.10;;;;;;5056092;28;20542;-96
2022/06/30 11:34:37;;;;;;;5.10;4.60;;;34.50;80.70;;;;;;5064751;28;20467;-95
2022/06/30 11:37:03;;;;;;;5.43;5.03;;;34.50;81.10;;;;;;5065831;28;20435;-96
2022/06/30 11:39:33;;;;;;;5.40;5.00;;;34.60;81.60;;;;;;5056392;28;20546;-96
2022/06/30 11:42:06;;;;;;;5.40;5.00;;;34.60;81.60;;;;;;5059268;28;20427;-96
2022/06/30 11:44:34;;;;;;;5.97;5.47;;;34.60;81.90;;;;;;5077968;28;20453;-96
2022/06/30 11:47:16;;;;;;;5.63;5.13;;;34.60;81.60;;;;;;5062690;28;20740;-96
2022/06/30 11:49:52;;;;;;;5.10;4.63;;;34.60;81.30;;;;;;5075928;28;20427;-96
2022/06/30 11:52:42;;;;;;;;;;;;;;;;;;;;;
2022/06/30 11:55:12;;;;;;;6.27;5.73;;;34.70;81.80;;;;;;5073501;28;20545;-96
2022/06/30 11:57:50;;;;;;;6.40;5.80;;;34.70;81.80;;;;;;5069026;28;20437;-96
2022/06/30 12:00:21;;;;;;;6.60;6.10;;;34.80;82.30;;;;;;5072361;28;20463;-96
2022/06/30 12:02:48;;;;;;;6.57;5.90;;;34.80;82.80;;;;;;5073161;28;21017;-96
2022/06/30 12:05:33;;;;;;;8.40;6.60;;;34.90;82.60;;;;;;5063214;28;20457;-96
2022/06/30 12:08:00;;;;;;;8.60;6.57;;;34.90;82.30;;;;;;5060148;28;20446;-96
2022/06/30 12:10:31;;;;;;;6.40;5.90;;;34.90;83.50;;;;;;5069576;28;20478;-96
2022/06/30 12:13:03;;;;;;;7.63;6.67;;;35.00;83.40;;;;;;5073584;28;20478;-96
2022/06/30 12:15:32;;;;;;;8.73;7.20;;;35.10;83.00;;;;;;5095032;28;20424;-96
2022/06/30 12:18:03;;;;;;;9.03;8.23;;;35.10;83.20;;;;;;5078262;28;21013;-96
2022/06/30 12:20:38;;;;;;;7.03;6.43;;;35.10;82.70;;;;;;5076360;28;20473;-96
2022/06/30 12:23:18;;;;;;;8.93;6.40;;;35.20;83.00;;;;;;5094463;28;20433;-96
2022/06/30 12:25:51;;;;;;;8.27;7.40;;;35.20;82.60;;;;;;5071948;22;21194;-69
2022/06/30 12:32:03;;;;;;;7.33;6.70;;;35.30;82.00;;;;;;5055859;28;20491;-69
2022/06/30 12:34:31;;;;;;;7.60;6.90;;;35.40;81.70;;;;;;5053719;28;20751;-70
2022/06/30 12:37:04;;;;;;;6.80;6.30;;;35.40;81.90;;;;;;5056825;28;21013;-70
2022/06/30 12:39:42;;;;;;;7.17;6.47;;;35.40;81.00;;;;;;5054613;28;20426;-70
2022/06/30 12:42:15;;;;;;;6.43;5.90;;;35.40;81.20;;;;;;5055379;28;20545;-70
2022/06/30 12:44:44;;;;;;;6.73;6.13;;;35.40;80.40;;;;;;5067182;28;20794;-71
2022/06/30 12:47:14;;;;;;;5.67;5.10;;;35.40;80.60;;;;;;5062457;28;20452;-70
2022/06/30 12:49:43;;;;;;;5.90;5.40;;;35.40;80.90;;;;;;5067400;28;20422;-70
2022/06/30 12:52:21;;;;;;;5.17;4.73;;;35.40;82.00;;;;;;5051119;28;20474;-69
2022/06/30 12:54:59;;;;;;;5.93;5.40;;;35.50;80.70;;;;;;5059627;28;20875;-70
2022/06/30 12:57:31;;;;;;;8.17;6.00;;;35.50;81.10;;;;;;5063540;28;20486;-70
2022/06/30 13:00:07;;;;;;;6.73;5.10;;;35.60;81.10;;;;;;5056568;28;20446;-69
2022/06/30 13:02:39;;;;;;;5.83;5.00;;;35.60;80.60;;;;;;5054612;28;20846;-71
2022/06/30 13:08:27;;;;;;;5.60;5.00;;;35.60;78.60;;;;;;5558553;22;20632;-70
2022/06/30 13:11:05;;;;;;;6.10;5.20;;;35.60;78.70;;;;;;5061390;28;20520;-69
2022/06/30 13:13:31;;;;;;;5.93;5.33;;;35.70;79.90;;;;;;5047805;28;20225;-69
2022/06/30 13:15:58;;;;;;;6.50;4.60;;;35.70;78.90;;;;;;5029077;28;20431;-70
2022/06/30 13:18:24;;;;;;;4.63;4.27;;;35.80;79.20;;;;;;5042440;28;20940;-70
2022/06/30 13:20:50;;;;;;;5.67;5.13;;;35.80;77.20;;;;;;5022142;28;20493;-70
2022/06/30 13:23:16;;;;;;;4.67;4.20;;;35.80;75.70;;;;;;5029184;28;21175;-70